Map

Track Data

SID SEASON NUMBER BASIN SUBBASIN NAME ISO_TIME NATURE LAT LON WMO_WIND WMO_PRES WMO_AGENCY TRACK_TYPE DIST2LAND LANDFALL IFLAG USA_AGENCY USA_ATCF_ID USA_LAT USA_LON USA_RECORD USA_STATUS USA_WIND USA_PRES USA_SSHS USA_R34_NE USA_R34_SE USA_R34_SW USA_R34_NW USA_R50_NE USA_R50_SE USA_R50_SW USA_R50_NW USA_R64_NE USA_R64_SE USA_R64_SW USA_R64_NW USA_POCI USA_ROCI USA_RMW USA_EYE TOKYO_LAT TOKYO_LON TOKYO_GRADE TOKYO_WIND TOKYO_PRES TOKYO_R50_DIR TOKYO_R50_LONG TOKYO_R50_SHORT TOKYO_R30_DIR TOKYO_R30_LONG TOKYO_R30_SHORT TOKYO_LAND CMA_LAT CMA_LON CMA_CAT CMA_WIND CMA_PRES HKO_LAT HKO_LON HKO_CAT HKO_WIND HKO_PRES NEWDELHI_LAT NEWDELHI_LON NEWDELHI_GRADE NEWDELHI_WIND NEWDELHI_PRES NEWDELHI_CI NEWDELHI_DP NEWDELHI_POCI REUNION_LAT REUNION_LON REUNION_TYPE REUNION_WIND REUNION_PRES REUNION_TNUM REUNION_CI REUNION_RMW REUNION_R34_NE REUNION_R34_SE REUNION_R34_SW REUNION_R34_NW REUNION_R50_NE REUNION_R50_SE REUNION_R50_SW REUNION_R50_NW REUNION_R64_NE REUNION_R64_SE REUNION_R64_SW REUNION_R64_NW BOM_LAT BOM_LON BOM_TYPE BOM_WIND BOM_PRES BOM_TNUM BOM_CI BOM_RMW BOM_R34_NE BOM_R34_SE BOM_R34_SW BOM_R34_NW BOM_R50_NE BOM_R50_SE BOM_R50_SW BOM_R50_NW BOM_R64_NE BOM_R64_SE BOM_R64_SW BOM_R64_NW BOM_ROCI BOM_POCI BOM_EYE BOM_POS_METHOD BOM_PRES_METHOD NADI_LAT NADI_LON NADI_CAT NADI_WIND NADI_PRES WELLINGTON_LAT WELLINGTON_LON WELLINGTON_WIND WELLINGTON_PRES DS824_LAT DS824_LON DS824_STAGE DS824_WIND DS824_PRES TD9636_LAT TD9636_LON TD9636_STAGE TD9636_WIND TD9636_PRES TD9635_LAT TD9635_LON TD9635_WIND TD9635_PRES TD9635_ROCI NEUMANN_LAT NEUMANN_LON NEUMANN_CLASS NEUMANN_WIND NEUMANN_PRES MLC_LAT MLC_LON MLC_CLASS MLC_WIND MLC_PRES USA_GUST BOM_GUST BOM_GUST_PER REUNION_GUST REUNION_GUST_PER USA_SEAHGT USA_SEARAD_NE USA_SEARAD_SE USA_SEARAD_SW USA_SEARAD_NW STORM_SPEED STORM_DIR
1973278N11257 1973 108 EP MM LILLIAN 1973-10-05 00:00:00 TS 11.2000 -102.800 30 hurdat_epa main 700 694 O________OO___ hurdat_epa EP121973 11.2000 -102.800 TD 30 -1 11.2000 -102.800 TC 30 11.2000 -102.800 1 30 10 300
1973278N11257 1973 108 EP MM LILLIAN 1973-10-05 03:00:00 TS 11.4495 -103.242 main 698 682 P________PP___ EP121973 11.4501 -103.242 TD 32 -1 11.4501 -103.242 TC 32 11.4471 -103.242 1 32 10 300
1973278N11257 1973 108 EP MM LILLIAN 1973-10-05 06:00:00 TS 11.6990 -103.699 35 hurdat_epa main 686 680 O________OP___ hurdat_epa EP121973 11.7000 -103.700 TS 35 0 11.7000 -103.700 TC 35 11.6951 -103.697 1 35 11 298
1973278N11257 1973 108 EP MM LILLIAN 1973-10-05 09:00:00 TS 11.9490 -104.184 main 690 680 P________PP___ EP121973 11.9499 -104.185 TS 35 0 11.9499 -104.185 TC 35 11.9456 -104.179 1 37 11 297
1973278N11257 1973 108 EP MM LILLIAN 1973-10-05 12:00:00 TS 12.2000 -104.700 35 hurdat_epa main 687 680 O________OO___ hurdat_epa EP121973 12.2000 -104.700 TS 35 0 12.2000 -104.700 TC 35 12.2000 -104.700 2 40 11 296
1973278N11257 1973 108 EP MM LILLIAN 1973-10-05 15:00:00 TS 12.4459 -105.241 main 683 669 P________PP___ EP121973 12.4424 -105.235 TS 37 0 12.4424 -105.235 TC 37 12.4599 -105.267 2 42 12 295
1973278N11257 1973 108 EP MM LILLIAN 1973-10-05 18:00:00 TS 12.7056 -105.812 40 hurdat_epa main 673 665 O________OP___ hurdat_epa EP121973 12.7000 -105.800 TS 40 0 12.7000 -105.800 TC 40 12.7278 -105.858 2 45 13 296
1973278N11257 1973 108 EP MM LILLIAN 1973-10-05 21:00:00 TS 12.9954 -106.421 main 669 667 P________PP___ EP121973 12.9926 -106.415 TS 42 0 12.9926 -106.415 TC 42 13.0068 -106.445 2 47 13 297
1973278N11257 1973 108 EP MM LILLIAN 1973-10-06 00:00:00 TS 13.3000 -107.000 45 hurdat_epa main 673 670 O________OO___ hurdat_epa EP121973 13.3000 -107.000 TS 45 0 13.3000 -107.000 TC 45 13.3000 -107.000 2 50 12 300
1973278N11257 1973 108 EP MM LILLIAN 1973-10-06 03:00:00 TS 13.5974 -107.471 main 677 673 P________PP___ EP121973 13.5923 -107.473 TS 45 0 13.5923 -107.473 TC 45 13.6178 -107.462 2 52 11 305
1973278N11257 1973 108 EP MM LILLIAN 1973-10-06 06:00:00 TS 13.9097 -107.899 45 hurdat_epa main 678 666 O________OP___ hurdat_epa EP121973 13.9000 -107.900 TS 45 0 13.9000 -107.900 TC 45 13.9487 -107.893 2 55 11 308
1973278N11257 1973 108 EP MM LILLIAN 1973-10-06 09:00:00 TS 14.2559 -108.328 main 662 661 P________PP___ EP121973 14.2498 -108.328 TS 47 0 14.2498 -108.328 TC 47 14.2803 -108.328 2 57 11 308
1973278N11257 1973 108 EP MM LILLIAN 1973-10-06 12:00:00 TS 14.6000 -108.800 50 hurdat_epa main 667 666 O________OO___ hurdat_epa EP121973 14.6000 -108.800 TS 50 0 14.6000 -108.800 TC 50 14.6000 -108.800 2 60 12 303
1973278N11257 1973 108 EP MM LILLIAN 1973-10-06 15:00:00 TS 14.9140 -109.380 main 686 685 P________PP___ EP121973 14.9150 -109.378 TS 50 0 14.9150 -109.378 TC 50 14.9102 -109.389 2 58 13 297
1973278N11257 1973 108 EP MM LILLIAN 1973-10-06 18:00:00 TS 15.2007 -110.003 50 hurdat_epa main 708 708 O________OP___ hurdat_epa EP121973 15.2000 -110.000 TS 50 0 15.2000 -110.000 TC 50 15.2033 -110.014 2 57 13 295
1973278N11257 1973 108 EP MM LILLIAN 1973-10-06 21:00:00 TS 15.4720 -110.631 main 732 732 P________PP___ EP121973 15.4725 -110.630 TS 52 0 15.4725 -110.630 TC 52 15.4697 -110.633 2 56 13 293
1973278N11257 1973 108 EP MM LILLIAN 1973-10-07 00:00:00 TS 15.7000 -111.200 55 hurdat_epa main 768 768 O________OO___ hurdat_epa EP121973 15.7000 -111.200 TS 55 0 15.7000 -111.200 TC 55 15.7000 -111.200 2 55 10 292
1973278N11257 1973 108 EP MM LILLIAN 1973-10-07 03:00:00 TS 15.8704 -111.634 main 790 790 P________PP___ EP121973 15.8647 -111.630 TS 57 0 15.8647 -111.630 TC 57 15.8931 -111.650 2 56 8 292
1973278N11257 1973 108 EP MM LILLIAN 1973-10-07 06:00:00 TS 16.0102 -112.009 60 hurdat_epa main 799 790 O________OP___ hurdat_epa EP121973 16.0000 -112.000 TS 60 0 16.0000 -112.000 TC 60 16.0512 -112.046 2 57 8 292
1973278N11257 1973 108 EP MM LILLIAN 1973-10-07 09:00:00 TS 16.1627 -112.398 main 790 790 P________PP___ EP121973 16.1574 -112.393 TS 60 0 16.1574 -112.393 TC 60 16.1838 -112.419 2 58 8 291
1973278N11257 1973 108 EP MM LILLIAN 1973-10-07 12:00:00 TS 16.3000 -112.800 60 hurdat_epa main 794 791 O________OO___ hurdat_epa EP121973 16.3000 -112.800 TS 60 0 16.3000 -112.800 TC 60 16.3000 -112.800 2 60 8 287
1973278N11257 1973 108 EP MM LILLIAN 1973-10-07 15:00:00 TS 16.4088 -113.240 main 800 799 P________PP___ EP121973 16.4074 -113.243 TS 65 1 16.4074 -113.243 TC 65 16.4141 -113.228 2 62 9 283
1973278N11257 1973 108 EP MM LILLIAN 1973-10-07 18:00:00 TS 16.5029 -113.694 70 hurdat_epa main 813 813 O________OP___ hurdat_epa EP121973 16.5000 -113.700 HU 70 1 16.5000 -113.700 TC 70 16.5146 -113.670 2 65 9 282
1973278N11257 1973 108 EP MM LILLIAN 1973-10-07 21:00:00 TS 16.5954 -114.140 main 824 824 P________PP___ EP121973 16.5924 -114.143 HU 70 1 16.5924 -114.143 TC 70 16.6078 -114.128 2 67 9 283
1973278N11257 1973 108 EP MM LILLIAN 1973-10-08 00:00:00 TS 16.7000 -114.600 70 hurdat_epa main 843 843 O________OO___ hurdat_epa EP121973 16.7000 -114.600 HU 70 1 16.7000 -114.600 TC 70 16.7000 -114.600 4 70 9 286
1973278N11257 1973 108 EP MM LILLIAN 1973-10-08 03:00:00 TS 16.8499 -115.088 main 865 856 P________PP___ EP121973 16.8574 -115.092 HU 70 1 16.8574 -115.092 TC 70 16.8198 -115.069 4 68 10 287
1973278N11257 1973 108 EP MM LILLIAN 1973-10-08 06:00:00 TS 16.9874 -115.591 70 hurdat_epa main 881 881 O________OP___ hurdat_epa EP121973 17.0000 -115.600 HU 70 1 17.0000 -115.600 TC 70 16.9368 -115.555 4 67 10 283
1973278N11257 1973 108 EP MM LILLIAN 1973-10-08 09:00:00 TS 17.0649 -116.081 main 909 909 P________PP___ EP121973 17.0723 -116.085 HU 72 1 17.0723 -116.085 TC 72 17.0353 -116.063 4 66 10 277
1973278N11257 1973 108 EP MM LILLIAN 1973-10-08 12:00:00 TS 17.1000 -116.600 75 hurdat_epa main 946 946 O________OO___ hurdat_epa EP121973 17.1000 -116.600 HU 75 1 17.1000 -116.600 TC 75 17.1000 -116.600 4 65 11 273
1973278N11257 1973 108 EP MM LILLIAN 1973-10-08 15:00:00 TS 17.1136 -117.202 main 992 992 P________PP___ EP121973 17.1149 -117.185 HU 75 1 17.1149 -117.185 TC 75 17.1082 -117.269 4 66 12 270
1973278N11257 1973 108 EP MM LILLIAN 1973-10-08 18:00:00 TS 17.0964 -117.830 75 990 hurdat_epa main 1035 1035 O________OP___ hurdat_epa EP121973 17.1000 -117.800 HU 75 990 1 17.1000 -117.800 TC 75 990 17.0819 -117.951 4 67 12 267
1973278N11257 1973 108 EP MM LILLIAN 1973-10-08 21:00:00 TS 17.0481 -118.503 main 1087 1087 P________PP___ EP121973 17.0503 -118.490 HU 72 1 17.0503 -118.490 TC 72 17.0394 -118.557 4 68 11 265
1973278N11257 1973 108 EP MM LILLIAN 1973-10-09 00:00:00 TS 17.0000 -119.000 70 hurdat_epa main 1119 1119 O________OO___ hurdat_epa EP121973 17.0000 -119.000 HU 70 1 17.0000 -119.000 TC 70 17.0000 -119.000 4 70 6 264
1973278N11257 1973 108 EP MM LILLIAN 1973-10-09 03:00:00 TS 16.9897 -119.116 main 1126 1126 P________PP___ EP121973 16.9922 -119.090 HU 60 0 16.9922 -119.090 TC 60 16.9794 -119.218 4 63 0 263
1973278N11257 1973 108 EP MM LILLIAN 1973-10-09 06:00:00 TS 16.9953 -119.050 50 hurdat_epa main 1119 1119 O________OP___ hurdat_epa EP121973 17.0000 -119.000 TS 50 0 17.0000 -119.000 TC 50 16.9764 -119.250 4 57 1 85
1973278N11257 1973 108 EP MM LILLIAN 1973-10-09 09:00:00 TS 16.9991 -119.007 main 1119 1119 P________PP___ EP121973 17.0026 -118.970 TS 47 0 17.0026 -118.970 TC 47 16.9853 -119.156 4 51 0 83
1973278N11257 1973 108 EP MM LILLIAN 1973-10-09 12:00:00 TS 17.0000 -119.000 45 hurdat_epa main 1119 O________OO___ hurdat_epa EP121973 17.0000 -119.000 TS 45 0 17.0000 -119.000 TC 45 17.0000 -119.000 2 45 0 0

About IBTrACS Database

This database is a web-friendly format of International Best Track Archive for Climate Stewardship (IBTrACS), a global best track data archive curated by NOAA dating back to 1842.

Updated: 2021-12-06